createdAt,value
2022-09-06T00:01:19.070Z,7.24
2022-09-06T00:03:46.714Z,7.23
2022-09-06T00:06:16.165Z,7.21
2022-09-06T00:08:45.236Z,7.22
2022-09-06T00:11:12.459Z,7.21
2022-09-06T00:13:39.637Z,7.21
2022-09-06T00:16:13.102Z,7.24
2022-09-06T00:18:40.498Z,7.32
2022-09-06T00:21:16.225Z,7.45
2022-09-06T00:23:42.990Z,7.62
2022-09-06T00:26:10.018Z,7.77
2022-09-06T00:28:37.173Z,7.88
2022-09-06T00:31:35.593Z,8.01
2022-09-06T00:34:02.922Z,7.97
2022-09-06T00:36:29.928Z,7.91
2022-09-06T00:38:56.874Z,7.78
2022-09-06T00:41:23.551Z,7.73
2022-09-06T00:43:50.259Z,7.66
2022-09-06T00:46:25.093Z,7.64
2022-09-06T00:48:56.426Z,7.67
2022-09-06T00:51:26.448Z,7.68
2022-09-06T00:53:53.225Z,7.69
2022-09-06T00:56:20.244Z,7.49
2022-09-06T00:58:52.427Z,7.31
2022-09-06T01:01:22.082Z,7.20
2022-09-06T01:03:49.461Z,7.06
2022-09-06T01:06:22.355Z,6.91
2022-09-06T01:09:04.239Z,6.74
2022-09-06T01:12:10.058Z,6.61
2022-09-06T01:14:55.622Z,6.46
2022-09-06T01:21:23.221Z,6.32
2022-09-06T01:23:53.187Z,6.26
2022-09-06T01:26:22.629Z,6.25
2022-09-06T01:28:50.933Z,6.26
2022-09-06T01:31:36.030Z,6.30
2022-09-06T01:34:08.701Z,6.34
2022-09-06T01:37:09.043Z,6.38
2022-09-06T01:39:37.353Z,6.39
2022-09-06T01:42:13.548Z,6.39
2022-09-06T01:44:45.607Z,6.39
2022-09-06T01:47:40.094Z,6.37
2022-09-06T01:50:12.770Z,6.36
2022-09-06T01:52:39.402Z,6.38
2022-09-06T01:55:20.436Z,6.37
2022-09-06T01:57:55.967Z,6.36
2022-09-06T02:00:23.905Z,6.33
2022-09-06T02:03:06.026Z,6.36
2022-09-06T02:05:41.513Z,-144.48
2022-09-06T02:08:16.431Z,-144.48
2022-09-06T02:10:51.413Z,-144.48
2022-09-06T02:13:20.163Z,-144.48
2022-09-06T02:15:52.916Z,-144.48
2022-09-06T02:18:24.837Z,-144.48
2022-09-06T02:20:55.689Z,-144.48
2022-09-06T02:23:26.244Z,-144.48
2022-09-06T02:25:59.583Z,-144.48
2022-09-06T02:28:27.165Z,-144.48
2022-09-06T02:30:59.609Z,-144.48
2022-09-06T02:33:31.306Z,-144.48
2022-09-06T02:36:04.984Z,-144.48
2022-09-06T02:38:34.285Z,-144.48
2022-09-06T02:41:01.442Z,-144.48
2022-09-06T02:43:28.129Z,-144.48
2022-09-06T02:45:54.866Z,-144.48
2022-09-06T02:48:22.606Z,-144.48
2022-09-06T02:50:49.498Z,-144.48
2022-09-06T02:53:16.803Z,-144.48
2022-09-06T02:55:45.774Z,-144.48
2022-09-06T02:58:12.835Z,-144.48
2022-09-06T03:00:39.823Z,-144.48
2022-09-06T03:03:07.104Z,-144.48
2022-09-06T03:05:34.288Z,-144.48
2022-09-06T03:08:01.195Z,-144.48
2022-09-06T03:10:28.175Z,-144.48
2022-09-06T03:12:55.119Z,-144.48
2022-09-06T03:15:22.041Z,-144.48
2022-09-06T03:17:48.911Z,-144.48
2022-09-06T03:21:40.365Z,5.88
2022-09-06T03:24:07.359Z,5.95
2022-09-06T03:26:34.088Z,6.06
2022-09-06T03:29:00.931Z,6.09
2022-09-06T03:31:27.902Z,6.17
2022-09-06T03:33:54.546Z,6.16
2022-09-06T03:36:21.336Z,6.12
2022-09-06T03:38:48.101Z,6.12
2022-09-06T03:41:15.000Z,6.07
2022-09-06T03:43:41.714Z,6.03
2022-09-06T03:46:08.693Z,5.98
2022-09-06T03:48:35.665Z,5.93
2022-09-06T03:51:02.618Z,5.83
2022-09-06T03:53:29.699Z,5.80
2022-09-06T03:55:58.343Z,5.80
2022-09-06T03:58:25.834Z,5.85
2022-09-06T04:01:09.905Z,5.89
2022-09-06T04:03:37.072Z,5.90
2022-09-06T04:06:05.084Z,5.97
2022-09-06T04:08:32.688Z,6.01
2022-09-06T04:11:00.103Z,6.07
2022-09-06T04:13:30.289Z,6.12
2022-09-06T04:15:57.436Z,6.07
2022-09-06T04:18:24.686Z,6.06
2022-09-06T04:20:53.229Z,6.04
2022-09-06T04:23:20.812Z,6.00
2022-09-06T04:25:53.127Z,6.02
2022-09-06T04:28:20.504Z,6.06
2022-09-06T04:31:05.401Z,6.02
2022-09-06T04:33:34.119Z,6.03
2022-09-06T04:36:02.523Z,6.07
2022-09-06T04:38:30.834Z,6.13
2022-09-06T04:40:57.631Z,6.22
2022-09-06T04:43:24.348Z,6.27
2022-09-06T04:45:51.498Z,6.26
2022-09-06T04:48:18.393Z,6.28
2022-09-06T04:50:45.249Z,6.34
2022-09-06T04:53:12.006Z,6.38
2022-09-06T04:55:38.842Z,6.41
2022-09-06T04:58:05.971Z,6.49
2022-09-06T05:00:34.594Z,6.53
2022-09-06T05:03:01.531Z,6.56
2022-09-06T05:05:28.559Z,6.63
2022-09-06T05:07:55.644Z,6.75
2022-09-06T05:10:23.879Z,6.87
2022-09-06T05:12:55.022Z,7.06
2022-09-06T05:15:23.267Z,7.29
2022-09-06T05:17:50.345Z,7.94
2022-09-06T05:22:34.572Z,9.67
2022-09-06T05:25:01.186Z,10.69
2022-09-06T05:27:27.829Z,11.72
2022-09-06T05:29:54.595Z,12.73
2022-09-06T05:32:21.212Z,13.52
2022-09-06T05:34:47.910Z,13.96
2022-09-06T05:37:14.641Z,14.11
2022-09-06T05:39:41.371Z,14.02
2022-09-06T05:42:09.851Z,13.71
2022-09-06T05:44:37.748Z,13.39
2022-09-06T05:47:04.706Z,13.16
2022-09-06T05:49:32.220Z,13.66
2022-09-06T05:51:59.131Z,14.22
2022-09-06T05:54:25.874Z,14.86
2022-09-06T05:56:52.610Z,15.49
2022-09-06T05:59:19.467Z,16.11
2022-09-06T06:01:53.928Z,16.58
2022-09-06T06:04:21.731Z,17.05
2022-09-06T06:06:49.534Z,17.49
2022-09-06T06:09:17.087Z,17.91
2022-09-06T06:11:44.136Z,18.54
2022-09-06T06:14:11.026Z,19.05
2022-09-06T06:16:38.477Z,19.61
2022-09-06T06:19:05.477Z,20.10
2022-09-06T06:21:33.864Z,20.44
2022-09-06T06:24:03.661Z,20.81
2022-09-06T06:26:33.635Z,21.16
2022-09-06T06:29:02.237Z,21.50
2022-09-06T06:31:30.247Z,21.93
2022-09-06T06:33:57.257Z,22.33
2022-09-06T06:36:27.274Z,22.45
2022-09-06T06:38:56.014Z,22.71
2022-09-06T06:41:25.353Z,22.91
2022-09-06T06:44:03.277Z,22.94
2022-09-06T06:46:32.681Z,23.16
2022-09-06T06:48:59.514Z,23.32
2022-09-06T06:51:28.593Z,23.53
2022-09-06T06:53:57.068Z,23.73
2022-09-06T06:56:28.157Z,24.06
2022-09-06T06:58:59.752Z,24.08
2022-09-06T07:01:28.699Z,24.33
2022-09-06T07:03:55.554Z,24.30
2022-09-06T07:09:09.915Z,24.19
2022-09-06T07:11:36.530Z,24.24
2022-09-06T07:14:03.178Z,24.27
2022-09-06T07:16:30.284Z,24.39
2022-09-06T07:18:56.984Z,24.25
2022-09-06T07:26:25.252Z,23.82
2022-09-06T07:28:53.195Z,23.68
2022-09-06T07:34:06.709Z,23.19
2022-09-06T07:36:33.541Z,23.46
2022-09-06T07:39:00.184Z,23.87
2022-09-06T07:41:26.837Z,24.26
2022-09-06T07:43:54.891Z,24.53
2022-09-06T07:46:22.320Z,24.54
2022-09-06T07:48:49.910Z,24.39
2022-09-06T07:51:21.728Z,24.34
2022-09-06T07:53:57.866Z,24.14
2022-09-06T07:56:34.002Z,23.99
2022-09-06T07:59:00.639Z,23.75
2022-09-06T08:01:35.577Z,23.98
2022-09-06T08:04:07.720Z,23.75
2022-09-06T08:09:26.635Z,23.73
2022-09-06T08:11:53.303Z,23.76
2022-09-06T08:14:20.506Z,23.71
2022-09-06T08:16:47.677Z,24.14
2022-09-06T08:19:14.459Z,24.27
2022-09-06T08:21:41.641Z,24.48
2022-09-06T08:24:12.591Z,24.46
2022-09-06T08:26:40.788Z,24.22
2022-09-06T08:29:09.043Z,24.14
2022-09-06T08:31:38.874Z,24.27
2022-09-06T08:34:06.031Z,24.47
2022-09-06T08:36:33.598Z,24.47
2022-09-06T08:39:01.883Z,24.40
2022-09-06T08:41:53.364Z,24.42
2022-09-06T08:44:57.254Z,24.60
2022-09-06T08:47:24.757Z,24.71
2022-09-06T08:50:02.771Z,24.39
2022-09-06T08:53:06.064Z,24.56
2022-09-06T08:55:41.483Z,24.17
2022-09-06T08:58:20.280Z,24.53
2022-09-06T09:00:52.778Z,24.77
2022-09-06T09:03:36.798Z,24.85
2022-09-06T09:06:09.582Z,25.02
2022-09-06T09:09:04.202Z,25.10
2022-09-06T09:11:33.646Z,25.01
2022-09-06T09:14:15.350Z,25.41
2022-09-06T09:16:43.213Z,25.41
2022-09-06T09:19:10.040Z,25.45
2022-09-06T09:24:32.455Z,25.04
2022-09-06T09:27:13.522Z,24.78
2022-09-06T09:32:44.982Z,24.19
2022-09-06T09:35:22.547Z,23.91
2022-09-06T09:38:04.964Z,23.67
2022-09-06T09:40:42.737Z,23.50
2022-09-06T09:43:35.070Z,23.25
2022-09-06T09:46:10.778Z,23.32
2022-09-06T09:48:38.521Z,22.94
2022-09-06T09:51:27.722Z,22.71
2022-09-06T09:54:02.050Z,22.47
2022-09-06T09:56:49.494Z,22.11
2022-09-06T09:59:36.362Z,21.83
2022-09-06T10:02:18.772Z,21.40
2022-09-06T10:04:49.882Z,21.61
2022-09-06T10:07:19.819Z,21.54
2022-09-06T10:10:05.362Z,21.51
2022-09-06T10:12:31.966Z,21.28
2022-09-06T10:15:02.495Z,21.23
2022-09-06T10:17:50.954Z,21.18
2022-09-06T10:20:18.264Z,21.21
2022-09-06T10:22:50.837Z,21.05
2022-09-06T10:25:39.108Z,21.15
2022-09-06T10:28:12.142Z,21.31
2022-09-06T10:31:11.421Z,21.65
2022-09-06T10:33:56.624Z,21.44
2022-09-06T10:36:32.664Z,21.14
2022-09-06T10:39:04.317Z,20.98
2022-09-06T10:41:34.088Z,21.08
2022-09-06T10:44:15.994Z,21.09
2022-09-06T10:46:45.820Z,20.95
2022-09-06T10:49:17.943Z,20.82
2022-09-06T10:51:50.232Z,20.70
2022-09-06T10:54:23.676Z,20.49
2022-09-06T10:56:53.689Z,20.41
2022-09-06T11:02:38.205Z,20.37
2022-09-06T11:10:55.605Z,20.21
2022-09-06T11:13:28.326Z,20.31
2022-09-06T11:16:10.429Z,20.30
2022-09-06T11:18:51.371Z,20.25
2022-09-06T11:21:30.102Z,20.12
2022-09-06T11:25:50.783Z,19.92
2022-09-06T11:28:26.596Z,19.99
2022-09-06T11:30:58.078Z,19.93
2022-09-06T11:33:38.547Z,19.96
2022-09-06T11:36:38.192Z,19.92
2022-09-06T11:39:08.528Z,19.72
2022-09-06T11:41:39.796Z,19.62
2022-09-06T11:44:08.396Z,19.60
2022-09-06T11:46:35.020Z,19.62
2022-09-06T11:49:07.585Z,19.64
2022-09-06T11:51:43.549Z,19.66
2022-09-06T11:54:49.386Z,19.48
2022-09-06T11:57:21.779Z,19.57
2022-09-06T11:59:56.697Z,19.38
2022-09-06T12:02:39.301Z,19.51
2022-09-06T12:05:07.623Z,19.50
2022-09-06T12:07:36.678Z,19.43
2022-09-06T12:10:31.185Z,19.30
2022-09-06T12:12:58.886Z,19.36
2022-09-06T12:15:45.340Z,19.38
2022-09-06T12:18:52.183Z,19.32
2022-09-06T12:21:36.923Z,19.51
2022-09-06T12:24:05.735Z,19.57
2022-09-06T12:26:55.812Z,19.60
2022-09-06T12:29:26.129Z,19.55
2022-09-06T12:31:58.398Z,19.36
2022-09-06T12:34:28.800Z,19.36
2022-09-06T12:36:55.505Z,19.37
2022-09-06T12:39:23.114Z,19.43
2022-09-06T12:41:55.137Z,19.25
2022-09-06T12:44:30.458Z,19.39
2022-09-06T12:47:03.282Z,19.44
2022-09-06T12:49:30.056Z,19.39
2022-09-06T12:52:14.101Z,19.28
2022-09-06T12:54:46.946Z,19.32
2022-09-06T12:57:19.029Z,19.35
2022-09-06T12:59:58.286Z,-144.48
2022-09-06T13:02:49.781Z,-144.48
2022-09-06T13:05:16.582Z,-144.48
2022-09-06T13:07:46.920Z,-144.48
2022-09-06T13:10:17.788Z,-144.48
2022-09-06T13:12:46.854Z,-144.48
2022-09-06T13:15:26.071Z,-144.48
2022-09-06T13:17:54.608Z,-144.48
2022-09-06T13:20:21.131Z,-144.48
2022-09-06T13:22:50.944Z,-144.48
2022-09-06T13:26:38.946Z,19.13
2022-09-06T13:29:18.355Z,19.22
2022-09-06T13:31:50.784Z,19.28
2022-09-06T13:34:27.121Z,19.22
2022-09-06T13:37:00.397Z,19.10
2022-09-06T13:39:32.301Z,19.02
2022-09-06T13:42:07.873Z,19.03
2022-09-06T13:44:37.850Z,18.97
2022-09-06T13:47:05.639Z,19.03
2022-09-06T13:49:34.309Z,19.04
2022-09-06T13:52:03.950Z,18.98
2022-09-06T13:54:32.717Z,19.03
2022-09-06T13:57:03.429Z,18.97
2022-09-06T13:59:31.968Z,18.91
2022-09-06T14:02:12.494Z,18.76
2022-09-06T14:04:39.667Z,18.84
2022-09-06T14:07:07.360Z,18.91
2022-09-06T14:09:34.202Z,18.82
2022-09-06T14:12:01.439Z,18.73
2022-09-06T14:14:28.624Z,18.85
2022-09-06T14:16:55.843Z,18.87
2022-09-06T14:19:23.597Z,18.74
2022-09-06T14:21:50.859Z,18.69
2022-09-06T14:24:18.181Z,18.70
2022-09-06T14:26:45.588Z,18.74
2022-09-06T14:29:13.053Z,18.86
2022-09-06T14:31:39.873Z,18.88
2022-09-06T14:34:06.989Z,18.87
2022-09-06T14:36:35.051Z,18.80
2022-09-06T14:39:02.669Z,18.81
2022-09-06T14:41:29.885Z,18.76
2022-09-06T14:43:58.782Z,18.66
2022-09-06T14:46:27.620Z,18.67
2022-09-06T14:49:03.494Z,18.67
2022-09-06T14:51:31.605Z,18.66
2022-09-06T14:54:05.705Z,18.71
2022-09-06T14:56:33.129Z,18.59
2022-09-06T14:59:00.818Z,18.57
2022-09-06T15:01:34.384Z,18.63
2022-09-06T15:04:07.336Z,18.56
2022-09-06T15:06:37.267Z,18.51
2022-09-06T15:09:05.965Z,18.42
2022-09-06T15:11:38.828Z,18.38
2022-09-06T15:14:18.507Z,18.33
2022-09-06T15:16:46.550Z,18.25
2022-09-06T15:19:14.640Z,18.19
2022-09-06T15:21:42.440Z,18.06
2022-09-06T15:27:39.006Z,17.90
2022-09-06T15:30:06.250Z,17.88
2022-09-06T15:32:32.908Z,17.75
2022-09-06T15:35:04.436Z,17.71
2022-09-06T15:37:31.353Z,17.60
2022-09-06T15:39:58.171Z,17.52
2022-09-06T15:42:24.882Z,17.36
2022-09-06T15:44:51.889Z,17.34
2022-09-06T15:47:18.519Z,17.23
2022-09-06T15:49:45.113Z,17.15
2022-09-06T15:52:12.453Z,17.19
2022-09-06T15:54:57.555Z,17.14
2022-09-06T15:57:24.483Z,17.10
2022-09-06T15:59:51.101Z,16.98
2022-09-06T16:02:17.906Z,16.91
2022-09-06T16:04:48.769Z,16.78
2022-09-06T16:07:15.379Z,16.73
2022-09-06T16:09:42.646Z,16.72
2022-09-06T16:12:09.524Z,16.63
2022-09-06T16:14:37.880Z,16.63
2022-09-06T16:17:04.565Z,16.65
2022-09-06T16:19:31.227Z,16.58
2022-09-06T16:21:59.037Z,16.59
2022-09-06T16:24:25.711Z,16.55
2022-09-06T16:26:52.346Z,16.49
2022-09-06T16:29:20.425Z,16.42
2022-09-06T16:31:47.631Z,16.36
2022-09-06T16:34:15.181Z,16.25
2022-09-06T16:36:41.949Z,16.22
2022-09-06T16:39:09.321Z,16.15
2022-09-06T16:41:45.107Z,16.02
2022-09-06T16:44:17.707Z,15.96
2022-09-06T16:46:47.066Z,15.95
2022-09-06T16:49:17.171Z,15.88
2022-09-06T16:51:44.478Z,15.82
2022-09-06T16:54:13.149Z,15.74
2022-09-06T16:56:40.246Z,15.57
2022-09-06T16:59:09.476Z,15.47
2022-09-06T17:01:38.382Z,15.34
2022-09-06T17:04:05.872Z,15.32
2022-09-06T17:06:35.553Z,15.26
2022-09-06T17:09:02.287Z,15.10
2022-09-06T17:11:29.539Z,14.97
2022-09-06T17:13:57.996Z,14.93
2022-09-06T17:16:44.068Z,14.88
2022-09-06T17:19:13.615Z,14.72
2022-09-06T17:21:40.417Z,14.63
2022-09-06T17:24:08.696Z,14.57
2022-09-06T17:28:38.402Z,14.52
2022-09-06T17:31:05.975Z,14.47
2022-09-06T17:33:34.481Z,14.43
2022-09-06T17:36:14.560Z,14.45
2022-09-06T17:38:43.071Z,14.33
2022-09-06T17:41:33.043Z,14.26
2022-09-06T17:44:00.252Z,14.17
2022-09-06T17:46:29.100Z,14.08
2022-09-06T17:48:57.204Z,14.00
2022-09-06T17:51:24.798Z,13.89
2022-09-06T17:53:52.627Z,13.82
2022-09-06T17:56:20.482Z,13.75
2022-09-06T17:59:00.740Z,13.78
2022-09-06T18:01:32.466Z,13.81
2022-09-06T18:03:59.854Z,13.83
2022-09-06T18:06:28.968Z,13.89
2022-09-06T18:08:57.228Z,13.87
2022-09-06T18:11:29.160Z,13.83
2022-09-06T18:14:07.203Z,13.76
2022-09-06T18:16:36.614Z,13.67
2022-09-06T18:19:09.309Z,13.58
2022-09-06T18:21:39.162Z,13.51
2022-09-06T18:24:06.379Z,13.54
2022-09-06T18:26:33.691Z,13.52
2022-09-06T18:29:05.809Z,13.50
2022-09-06T18:31:32.928Z,13.53
2022-09-06T18:34:00.745Z,13.45
2022-09-06T18:36:31.892Z,13.43
2022-09-06T18:39:03.280Z,13.48
2022-09-06T18:41:49.506Z,13.47
2022-09-06T18:44:17.602Z,13.40
2022-09-06T18:46:45.266Z,13.44
2022-09-06T18:49:15.415Z,13.40
2022-09-06T18:51:43.999Z,13.35
2022-09-06T18:54:11.534Z,13.32
2022-09-06T18:56:39.235Z,13.23
2022-09-06T18:59:07.566Z,13.27
2022-09-06T19:01:35.442Z,13.18
2022-09-06T19:04:05.183Z,13.24
2022-09-06T19:06:34.442Z,13.19
2022-09-06T19:09:05.805Z,13.16
2022-09-06T19:11:34.009Z,13.08
2022-09-06T19:14:02.229Z,13.02
2022-09-06T19:16:31.977Z,12.98
2022-09-06T19:19:07.477Z,12.91
2022-09-06T19:21:40.822Z,12.82
2022-09-06T19:24:10.888Z,12.78
2022-09-06T19:29:43.188Z,12.64
2022-09-06T19:32:11.207Z,12.59
2022-09-06T19:34:41.647Z,12.55
2022-09-06T19:37:09.167Z,12.49
2022-09-06T19:39:37.427Z,12.40
2022-09-06T19:42:05.588Z,12.35
2022-09-06T19:44:33.940Z,12.34
2022-09-06T19:47:01.539Z,12.24
2022-09-06T19:49:31.133Z,12.33
2022-09-06T19:51:58.481Z,12.28
2022-09-06T19:54:28.296Z,12.38
2022-09-06T19:56:55.524Z,12.35
2022-09-06T19:59:22.660Z,12.29
2022-09-06T20:01:50.660Z,12.24
2022-09-06T20:04:18.215Z,12.24
2022-09-06T20:06:46.088Z,12.22
2022-09-06T20:09:14.065Z,12.17
2022-09-06T20:11:41.925Z,12.10
2022-09-06T20:14:10.524Z,12.08
2022-09-06T20:16:41.381Z,12.13
2022-09-06T20:19:09.550Z,12.09
2022-09-06T20:21:36.305Z,12.02
2022-09-06T20:24:03.313Z,12.03
2022-09-06T20:26:30.630Z,11.97
2022-09-06T20:28:59.906Z,11.96
2022-09-06T20:31:31.341Z,11.85
2022-09-06T20:34:05.312Z,11.93
2022-09-06T20:36:32.327Z,11.82
2022-09-06T20:38:59.065Z,11.73
2022-09-06T20:41:27.463Z,11.73
2022-09-06T20:44:00.923Z,11.73
2022-09-06T20:46:32.542Z,11.61
2022-09-06T20:49:03.647Z,11.57
2022-09-06T20:51:31.775Z,11.56
2022-09-06T20:54:00.192Z,11.45
2022-09-06T20:56:29.379Z,11.47
2022-09-06T20:58:59.059Z,11.42
2022-09-06T21:01:28.848Z,11.39
2022-09-06T21:03:59.089Z,11.39
2022-09-06T21:06:27.672Z,11.37
2022-09-06T21:08:55.265Z,11.33
2022-09-06T21:11:22.145Z,11.30
2022-09-06T21:13:55.956Z,11.32
2022-09-06T21:16:25.064Z,11.24
2022-09-06T21:18:59.778Z,11.21
2022-09-06T21:21:28.437Z,11.12
2022-09-06T21:23:55.732Z,11.13
2022-09-06T21:26:23.224Z,11.09
2022-09-06T21:30:38.948Z,11.04
2022-09-06T21:33:05.554Z,11.02
2022-09-06T21:35:34.523Z,11.00
2022-09-06T21:38:01.274Z,10.96
2022-09-06T21:40:27.881Z,10.95
2022-09-06T21:42:54.544Z,10.92
2022-09-06T21:45:21.152Z,10.91
2022-09-06T21:47:47.785Z,10.82
2022-09-06T21:50:17.616Z,10.81
2022-09-06T21:52:44.285Z,10.78
2022-09-06T21:55:14.943Z,10.77
2022-09-06T21:57:42.553Z,10.78
2022-09-06T22:00:09.728Z,10.76
2022-09-06T22:02:36.625Z,10.72
2022-09-06T22:05:06.675Z,10.69
2022-09-06T22:07:36.691Z,10.69
2022-09-06T22:10:03.940Z,10.79
2022-09-06T22:12:30.562Z,10.74
2022-09-06T22:14:57.185Z,10.77
2022-09-06T22:17:30.336Z,10.82
2022-09-06T22:19:57.054Z,10.84
2022-09-06T22:22:23.794Z,10.82
2022-09-06T22:24:50.552Z,10.80
2022-09-06T22:27:17.160Z,10.84
2022-09-06T22:29:44.101Z,10.83
2022-09-06T22:32:10.787Z,10.87
2022-09-06T22:34:37.562Z,10.84
2022-09-06T22:37:04.402Z,10.80
2022-09-06T22:39:31.685Z,10.79
2022-09-06T22:42:01.039Z,10.78
2022-09-06T22:44:29.069Z,10.79
2022-09-06T22:46:56.139Z,10.79
2022-09-06T22:49:23.094Z,10.75
2022-09-06T22:51:49.822Z,10.73
2022-09-06T22:54:16.560Z,10.70
2022-09-06T22:56:43.179Z,10.65
2022-09-06T22:59:09.808Z,10.62
2022-09-06T23:01:39.391Z,10.59
2022-09-06T23:04:07.566Z,10.60
2022-09-06T23:06:35.100Z,10.53
2022-09-06T23:09:02.607Z,10.43
2022-09-06T23:11:32.136Z,10.40
2022-09-06T23:13:59.968Z,10.28
2022-09-06T23:16:28.366Z,10.20
2022-09-06T23:18:55.762Z,10.08
2022-09-06T23:21:25.864Z,9.92
2022-09-06T23:23:55.026Z,9.77
2022-09-06T23:26:25.401Z,9.61
2022-09-06T23:31:39.993Z,9.18
2022-09-06T23:34:06.690Z,9.01
2022-09-06T23:36:33.583Z,8.84
2022-09-06T23:39:01.947Z,8.73
2022-09-06T23:41:28.767Z,8.56
2022-09-06T23:43:55.410Z,8.38
2022-09-06T23:46:25.608Z,8.34
2022-09-06T23:48:52.532Z,8.24
2022-09-06T23:51:19.509Z,8.17
2022-09-06T23:53:46.344Z,8.00
2022-09-06T23:56:12.992Z,7.94
2022-09-06T23:58:40.262Z,7.94
